createdAt,value
2018-12-07T00:00:08.546Z,98.71
2018-12-07T00:01:08.555Z,98.61
2018-12-07T00:02:08.523Z,98.50
2018-12-07T00:03:08.517Z,98.71
2018-12-07T00:04:08.522Z,98.71
2018-12-07T00:05:08.502Z,98.61
2018-12-07T00:06:08.486Z,98.91
2018-12-07T00:07:08.496Z,98.50
2018-12-07T00:08:08.458Z,98.71
2018-12-07T00:09:08.446Z,98.81
2018-12-07T00:10:08.446Z,98.50
2018-12-07T00:11:08.430Z,98.71
2018-12-07T00:12:08.455Z,98.91
2018-12-07T00:13:08.421Z,98.40
2018-12-07T00:14:08.394Z,98.71
2018-12-07T00:15:08.379Z,98.81
2018-12-07T00:16:08.366Z,98.91
2018-12-07T00:17:08.356Z,99.11
2018-12-07T00:18:08.354Z,98.50
2018-12-07T00:19:08.364Z,98.81
2018-12-07T00:20:08.326Z,98.61
2018-12-07T00:21:08.315Z,98.65
2018-12-07T00:22:08.302Z,98.45
2018-12-07T00:23:08.294Z,98.91
2018-12-07T00:24:08.294Z,98.71
2018-12-07T00:25:08.296Z,98.91
2018-12-07T00:26:08.256Z,98.10
2018-12-07T00:27:08.244Z,98.75
2018-12-07T00:28:08.234Z,98.50
2018-12-07T00:29:08.232Z,98.55
2018-12-07T00:30:08.322Z,98.50
2018-12-07T00:31:08.212Z,98.61
2018-12-07T00:32:08.189Z,98.50
2018-12-07T00:33:08.176Z,98.61
2018-12-07T00:34:08.176Z,98.61
2018-12-07T00:35:08.159Z,98.71
2018-12-07T00:36:08.163Z,98.55
2018-12-07T00:37:08.132Z,98.81
2018-12-07T00:38:08.124Z,98.81
2018-12-07T00:39:08.110Z,98.10
2018-12-07T00:40:08.097Z,97.83
2018-12-07T00:41:08.131Z,98.10
2018-12-07T00:42:08.101Z,98.10
2018-12-07T00:43:08.068Z,98.10
2018-12-07T00:44:08.056Z,98.61
2018-12-07T00:45:08.059Z,98.10
2018-12-07T00:46:08.034Z,98.30
2018-12-07T00:47:08.037Z,98.50
2018-12-07T00:48:08.046Z,98.10
2018-12-07T00:49:08.001Z,97.89
2018-12-07T00:50:07.986Z,97.58
2018-12-07T00:51:07.982Z,98.10
2018-12-07T00:52:07.972Z,98.40
2018-12-07T00:53:07.979Z,98.14
2018-12-07T00:54:07.954Z,98.30
2018-12-07T00:55:07.958Z,98.10
2018-12-07T00:56:07.924Z,98.35
2018-12-07T00:57:07.913Z,98.24
2018-12-07T00:58:07.900Z,98.30
2018-12-07T00:59:07.906Z,98.55
2018-12-07T01:00:07.879Z,98.35
2018-12-07T01:01:07.864Z,98.20
2018-12-07T01:02:07.873Z,98.86
2018-12-07T01:03:07.843Z,98.86
2018-12-07T01:04:07.911Z,98.55
2018-12-07T01:05:07.827Z,98.24
2018-12-07T01:06:07.811Z,99.06
2018-12-07T01:07:07.796Z,98.50
2018-12-07T01:08:07.786Z,98.65
2018-12-07T01:09:07.813Z,98.55
2018-12-07T01:10:07.781Z,98.86
2018-12-07T01:11:07.756Z,98.96
2018-12-07T01:12:07.747Z,98.55
2018-12-07T01:13:07.729Z,99.21
2018-12-07T01:14:07.722Z,99.11
2018-12-07T01:15:07.716Z,98.80
2018-12-07T01:16:07.728Z,99.06
2018-12-07T01:17:07.694Z,99.06
2018-12-07T01:18:07.680Z,99.06
2018-12-07T01:19:07.671Z,98.75
2018-12-07T01:20:07.655Z,99.82
2018-12-07T01:21:07.645Z,99.78
2018-12-07T01:22:07.651Z,99.78
2018-12-07T01:23:07.631Z,99.06
2018-12-07T01:24:07.657Z,98.75
2018-12-07T01:25:07.598Z,99.37
2018-12-07T01:26:07.588Z,99.27
2018-12-07T01:27:07.589Z,99.41
2018-12-07T01:28:07.565Z,99.47
2018-12-07T01:29:07.582Z,99.88
2018-12-07T01:30:07.541Z,99.99
2018-12-07T01:31:07.570Z,99.99
2018-12-07T01:32:07.519Z,99.62
2018-12-07T01:33:07.510Z,99.99
2018-12-07T01:34:07.500Z,99.98
2018-12-07T01:35:07.509Z,99.82
2018-12-07T01:36:07.497Z,99.62
2018-12-07T01:37:07.463Z,99.72
2018-12-07T01:38:07.481Z,99.99
2018-12-07T01:39:07.446Z,99.99
2018-12-07T01:40:07.453Z,99.99
2018-12-07T01:41:07.419Z,99.99
2018-12-07T01:42:07.405Z,99.99
2018-12-07T01:43:07.392Z,99.99
2018-12-07T01:44:07.393Z,99.99
2018-12-07T01:45:07.375Z,99.99
2018-12-07T01:46:07.381Z,99.99
2018-12-07T01:47:07.371Z,99.99
2018-12-07T01:48:07.340Z,99.99
2018-12-07T01:49:07.331Z,99.99
2018-12-07T01:50:07.318Z,99.99
2018-12-07T01:51:07.307Z,99.62
2018-12-07T01:52:07.313Z,99.52
2018-12-07T01:53:07.285Z,99.88
2018-12-07T01:54:07.310Z,99.82
2018-12-07T01:55:07.267Z,99.82
2018-12-07T01:56:07.263Z,99.41
2018-12-07T01:57:59.663Z,99.62
2018-12-07T01:58:59.641Z,99.37
2018-12-07T01:59:59.658Z,99.47
2018-12-07T02:00:59.621Z,99.41
2018-12-07T02:01:59.609Z,99.52
2018-12-07T02:02:59.616Z,99.37
2018-12-07T02:03:59.614Z,99.62
2018-12-07T02:04:59.578Z,99.41
2018-12-07T02:05:59.564Z,99.41
2018-12-07T02:06:59.559Z,99.72
2018-12-07T02:07:59.563Z,99.47
2018-12-07T02:08:59.535Z,99.72
2018-12-07T02:09:59.571Z,99.72
2018-12-07T02:10:59.508Z,99.72
2018-12-07T02:11:59.504Z,99.37
2018-12-07T02:12:59.493Z,99.68
2018-12-07T02:13:59.477Z,99.31
2018-12-07T02:14:59.470Z,99.27
2018-12-07T02:15:59.520Z,99.06
2018-12-07T02:16:59.454Z,99.47
2018-12-07T02:17:59.435Z,99.31
2018-12-07T02:18:59.429Z,99.68
2018-12-07T02:19:59.416Z,99.21
2018-12-07T02:20:59.406Z,99.68
2018-12-07T02:21:59.415Z,99.16
2018-12-07T02:22:59.377Z,99.62
2018-12-07T02:23:59.391Z,99.27
2018-12-07T02:24:59.367Z,99.31
2018-12-07T02:25:59.353Z,99.52
2018-12-07T02:27:00.826Z,99.52
2018-12-07T02:27:59.352Z,99.99
2018-12-07T02:28:59.316Z,99.62
2018-12-07T02:29:59.340Z,99.52
2018-12-07T02:30:59.398Z,99.41
2018-12-07T02:31:59.279Z,99.93
2018-12-07T02:32:59.278Z,99.99
2018-12-07T02:33:59.277Z,99.99
2018-12-07T02:34:59.246Z,99.99
2018-12-07T02:35:59.241Z,99.99
2018-12-07T02:36:59.226Z,99.99
2018-12-07T02:37:59.237Z,99.93
2018-12-07T02:38:59.202Z,99.99
2018-12-07T02:39:59.215Z,99.99
2018-12-07T02:40:59.177Z,99.99
2018-12-07T02:41:59.178Z,99.99
2018-12-07T02:42:59.167Z,99.99
2018-12-07T02:43:59.165Z,99.99
2018-12-07T02:44:59.158Z,99.99
2018-12-07T02:45:59.140Z,99.99
2018-12-07T02:46:59.123Z,99.99
2018-12-07T02:47:59.124Z,99.99
2018-12-07T02:48:59.105Z,99.99
2018-12-07T02:49:59.082Z,99.99
2018-12-07T02:50:59.087Z,99.99
2018-12-07T02:51:59.062Z,99.99
2018-12-07T02:52:59.051Z,99.99
2018-12-07T02:53:59.062Z,99.99
2018-12-07T02:54:59.032Z,99.99
2018-12-07T02:55:59.018Z,99.99
2018-12-07T02:56:59.044Z,99.99
2018-12-07T02:57:58.999Z,99.99
2018-12-07T02:58:58.985Z,99.99
2018-12-07T02:59:58.976Z,99.99
2018-12-07T03:00:58.963Z,99.99
2018-12-07T03:01:58.952Z,99.99
2018-12-07T03:02:58.953Z,99.99
2018-12-07T03:03:58.939Z,99.99
2018-12-07T03:04:58.997Z,99.99
2018-12-07T03:05:58.907Z,99.99
2018-12-07T03:06:58.907Z,99.99
2018-12-07T03:07:58.901Z,99.99
2018-12-07T03:08:58.883Z,99.99
2018-12-07T03:09:58.864Z,99.99
2018-12-07T03:10:58.879Z,99.99
2018-12-07T03:11:58.845Z,99.99
2018-12-07T03:12:58.828Z,99.99
2018-12-07T03:13:58.834Z,99.99
2018-12-07T03:14:58.810Z,99.99
2018-12-07T03:15:58.797Z,99.99
2018-12-07T03:16:58.783Z,99.99
2018-12-07T03:17:58.779Z,99.99
2018-12-07T03:18:58.803Z,99.99
2018-12-07T03:19:58.779Z,99.99
2018-12-07T03:20:58.741Z,99.99
2018-12-07T03:21:58.730Z,99.99
2018-12-07T03:22:58.721Z,99.99
2018-12-07T03:23:58.712Z,99.99
2018-12-07T03:24:58.720Z,99.99
2018-12-07T03:25:58.706Z,99.99
2018-12-07T03:26:58.677Z,99.99
2018-12-07T03:27:58.667Z,99.99
2018-12-07T03:28:58.656Z,99.99
2018-12-07T03:29:58.644Z,99.99
2018-12-07T03:30:58.694Z,99.99
2018-12-07T03:31:58.637Z,99.99
2018-12-07T03:32:58.621Z,99.99
2018-12-07T03:33:58.601Z,99.99
2018-12-07T03:34:58.591Z,99.99
2018-12-07T03:35:58.574Z,99.99
2018-12-07T03:36:58.569Z,99.99
2018-12-07T03:37:58.577Z,99.99
2018-12-07T03:38:58.561Z,99.99
2018-12-07T03:39:58.539Z,99.99
2018-12-07T03:40:58.545Z,99.99
2018-12-07T03:41:58.515Z,99.99
2018-12-07T03:42:58.502Z,99.99
2018-12-07T03:43:58.519Z,99.99
2018-12-07T03:44:58.478Z,99.99
2018-12-07T03:45:58.486Z,99.99
2018-12-07T03:46:58.496Z,99.99
2018-12-07T03:47:58.449Z,99.99
2018-12-07T03:48:58.449Z,99.99
2018-12-07T03:49:58.426Z,99.99
2018-12-07T03:50:58.412Z,99.99
2018-12-07T03:51:58.417Z,99.99
2018-12-07T03:52:58.444Z,99.99
2018-12-07T03:53:58.387Z,99.99
2018-12-07T03:54:58.392Z,99.99
2018-12-07T03:55:58.363Z,99.99
2018-12-07T03:56:58.353Z,99.99
2018-12-07T03:57:58.340Z,99.99
2018-12-07T03:58:58.323Z,99.99
2018-12-07T03:59:58.333Z,99.99
2018-12-07T04:00:58.323Z,99.99
2018-12-07T04:01:58.297Z,99.99
2018-12-07T04:02:58.284Z,99.99
2018-12-07T04:03:58.273Z,99.99
2018-12-07T04:04:58.261Z,99.99
2018-12-07T04:05:58.273Z,99.99
2018-12-07T04:06:58.257Z,99.99
2018-12-07T04:07:58.235Z,99.99
2018-12-07T04:08:58.226Z,99.99
2018-12-07T04:09:58.208Z,99.99
2018-12-07T04:10:58.197Z,99.99
2018-12-07T04:11:58.194Z,99.99
2018-12-07T04:12:58.312Z,99.99
2018-12-07T04:13:58.162Z,99.99
2018-12-07T04:14:58.154Z,99.99
2018-12-07T04:15:58.137Z,99.99
2018-12-07T04:16:58.131Z,99.99
2018-12-07T04:17:58.122Z,99.99
2018-12-07T04:18:58.121Z,99.99
2018-12-07T04:19:58.101Z,99.99
2018-12-07T04:20:58.134Z,99.99
2018-12-07T04:21:58.071Z,99.99
2018-12-07T04:22:58.079Z,99.99
2018-12-07T04:23:58.056Z,99.99
2018-12-07T04:24:58.055Z,99.99
2018-12-07T04:25:58.030Z,99.99
2018-12-07T04:26:58.022Z,99.99
2018-12-07T04:27:58.024Z,99.99
2018-12-07T04:28:57.994Z,99.99
2018-12-07T04:29:57.982Z,99.99
2018-12-07T04:30:57.996Z,99.99
2018-12-07T04:31:57.961Z,99.99
2018-12-07T04:32:57.960Z,99.99
2018-12-07T04:33:57.941Z,99.99
2018-12-07T04:34:57.988Z,99.99
2018-12-07T04:35:57.922Z,99.99
2018-12-07T04:36:57.922Z,99.99
2018-12-07T04:37:57.903Z,99.99
2018-12-07T04:38:57.885Z,99.99
2018-12-07T04:39:57.878Z,99.99
2018-12-07T04:40:57.882Z,99.99
2018-12-07T04:41:57.938Z,99.99
2018-12-07T04:42:57.844Z,99.99
2018-12-07T04:43:57.841Z,99.99
2018-12-07T04:44:57.821Z,99.99
2018-12-07T04:45:57.810Z,99.99
2018-12-07T04:46:57.813Z,99.99
2018-12-07T04:47:57.825Z,99.99
2018-12-07T04:48:57.808Z,99.99
2018-12-07T04:49:57.765Z,99.99
2018-12-07T04:50:57.761Z,99.99
2018-12-07T04:51:57.750Z,99.99
2018-12-07T04:52:57.733Z,99.99
2018-12-07T04:53:57.728Z,99.99
2018-12-07T04:54:57.728Z,99.99
2018-12-07T04:55:57.701Z,99.99
2018-12-07T04:56:57.742Z,99.99
2018-12-07T04:57:57.683Z,99.99
2018-12-07T04:58:57.669Z,99.99
2018-12-07T04:59:57.671Z,99.99
2018-12-07T05:00:57.648Z,99.99
2018-12-07T05:01:57.633Z,99.99
2018-12-07T05:02:57.666Z,99.99
2018-12-07T05:03:57.626Z,99.99
2018-12-07T05:04:57.602Z,99.99
2018-12-07T05:05:57.620Z,99.99
2018-12-07T05:06:57.586Z,99.99
2018-12-07T05:07:57.575Z,99.99
2018-12-07T05:08:57.564Z,99.99
2018-12-07T05:09:57.547Z,99.99
2018-12-07T05:10:57.541Z,99.99
2018-12-07T05:11:57.550Z,99.99
2018-12-07T05:12:57.523Z,99.99
2018-12-07T05:13:57.502Z,99.99
2018-12-07T05:14:57.493Z,99.99
2018-12-07T05:15:57.481Z,99.99
2018-12-07T05:16:57.474Z,99.99
2018-12-07T05:17:57.472Z,99.99
2018-12-07T05:18:57.472Z,99.99
2018-12-07T05:19:57.438Z,99.99
2018-12-07T05:20:57.428Z,99.99
2018-12-07T05:21:57.418Z,99.99
2018-12-07T05:22:57.420Z,99.99
2018-12-07T05:23:57.399Z,99.93
2018-12-07T05:24:57.485Z,99.99
2018-12-07T05:25:57.373Z,99.99
2018-12-07T05:26:57.359Z,99.99
2018-12-07T05:27:57.355Z,99.99
2018-12-07T05:28:57.359Z,99.99
2018-12-07T05:29:57.330Z,99.99
2018-12-07T05:30:57.322Z,99.99
2018-12-07T05:31:57.340Z,99.99
2018-12-07T05:32:57.303Z,99.99
2018-12-07T05:33:57.308Z,99.99
2018-12-07T05:34:57.336Z,99.99
2018-12-07T05:35:57.266Z,99.99
2018-12-07T05:36:57.251Z,99.99
2018-12-07T05:37:57.245Z,99.82
2018-12-07T05:38:57.226Z,99.99
2018-12-07T05:39:57.234Z,99.99
2018-12-07T05:40:57.245Z,99.99
2018-12-07T05:41:57.210Z,99.99
2018-12-07T05:42:57.191Z,99.99
2018-12-07T05:43:57.180Z,99.99
2018-12-07T05:44:57.200Z,99.99
2018-12-07T05:45:57.177Z,99.99
2018-12-07T05:46:57.145Z,99.93
2018-12-07T05:47:57.144Z,99.99
2018-12-07T05:48:57.123Z,99.99
2018-12-07T05:49:57.107Z,99.99
2018-12-07T05:50:57.143Z,99.99
2018-12-07T05:51:57.103Z,99.99
2018-12-07T05:52:57.075Z,99.99
2018-12-07T05:53:57.060Z,99.99
2018-12-07T05:54:57.054Z,99.99
2018-12-07T05:55:57.043Z,99.82
2018-12-07T05:56:57.044Z,99.99
2018-12-07T05:57:57.050Z,99.99
2018-12-07T05:58:57.010Z,99.99
2018-12-07T05:59:57.002Z,99.93
2018-12-07T06:00:57.028Z,99.99
2018-12-07T06:01:56.976Z,99.99
2018-12-07T06:02:56.970Z,99.99
2018-12-07T06:03:56.973Z,99.82
2018-12-07T06:04:56.941Z,99.99
2018-12-07T06:05:58.173Z,99.99
2018-12-07T06:06:56.919Z,99.99
2018-12-07T06:07:56.912Z,99.99
2018-12-07T06:08:56.934Z,99.99
2018-12-07T06:09:56.905Z,99.99
2018-12-07T06:10:56.877Z,99.99
2018-12-07T06:11:56.873Z,99.99
2018-12-07T06:12:56.856Z,99.99
2018-12-07T06:13:56.905Z,99.99
2018-12-07T06:14:56.850Z,99.99
2018-12-07T06:15:56.826Z,99.99
2018-12-07T06:16:56.813Z,99.99
2018-12-07T06:17:56.800Z,99.99
2018-12-07T06:18:56.793Z,99.99
2018-12-07T06:19:56.785Z,99.99
2018-12-07T06:20:56.824Z,99.99
2018-12-07T06:21:56.754Z,99.93
2018-12-07T06:22:56.742Z,99.72
2018-12-07T06:23:56.731Z,99.99
2018-12-07T06:24:56.720Z,99.99
2018-12-07T06:25:56.728Z,99.99
2018-12-07T06:26:56.701Z,99.99
2018-12-07T06:27:56.692Z,99.52
2018-12-07T06:28:56.681Z,99.52
2018-12-07T06:29:56.666Z,99.99
2018-12-07T06:30:56.672Z,99.99
2018-12-07T06:31:56.666Z,99.82
2018-12-07T06:32:56.648Z,99.99
2018-12-07T06:33:56.626Z,99.99
2018-12-07T06:34:56.612Z,99.99
2018-12-07T06:35:56.606Z,99.99
2018-12-07T06:36:56.601Z,99.99
2018-12-07T06:37:56.607Z,99.52
2018-12-07T06:38:56.568Z,99.62
2018-12-07T06:39:56.567Z,99.82
2018-12-07T06:40:56.550Z,99.41
2018-12-07T06:41:56.539Z,99.72
2018-12-07T06:42:56.526Z,99.52
2018-12-07T06:43:56.567Z,99.52
2018-12-07T06:44:56.506Z,99.72
2018-12-07T06:45:56.488Z,99.31
2018-12-07T06:46:56.481Z,99.41
2018-12-07T06:47:56.483Z,99.93
2018-12-07T06:48:56.481Z,99.99
2018-12-07T06:49:56.475Z,99.99
2018-12-07T06:50:56.440Z,99.52
2018-12-07T06:51:56.426Z,99.52
2018-12-07T06:52:56.415Z,99.99
2018-12-07T06:53:56.415Z,99.99
2018-12-07T06:54:56.408Z,99.41
2018-12-07T06:55:56.422Z,99.99
2018-12-07T06:56:56.372Z,99.99
2018-12-07T06:57:56.362Z,99.99
2018-12-07T06:58:56.347Z,99.99
2018-12-07T06:59:56.336Z,99.99
2018-12-07T07:00:56.342Z,99.99
2018-12-07T07:01:56.319Z,99.99
2018-12-07T07:02:56.309Z,99.99
2018-12-07T07:03:56.300Z,99.99
2018-12-07T07:04:56.297Z,99.99
2018-12-07T07:05:56.301Z,99.99
2018-12-07T07:06:56.260Z,99.99
2018-12-07T07:07:56.252Z,99.99
2018-12-07T07:08:56.238Z,99.82
2018-12-07T07:09:56.233Z,99.93
2018-12-07T07:10:56.217Z,99.99
2018-12-07T07:11:56.245Z,99.99
2018-12-07T07:12:56.201Z,99.99
2018-12-07T07:13:56.197Z,99.82
2018-12-07T07:14:56.173Z,99.99
2018-12-07T07:15:56.163Z,99.93
2018-12-07T07:16:56.150Z,99.72
2018-12-07T07:17:56.187Z,99.99
2018-12-07T07:18:56.131Z,99.99
2018-12-07T07:19:56.126Z,99.99
2018-12-07T07:20:56.144Z,99.99
2018-12-07T07:21:56.095Z,99.99
2018-12-07T07:22:56.102Z,99.99
2018-12-07T07:23:56.077Z,99.99
2018-12-07T07:24:56.062Z,99.99
2018-12-07T07:25:56.054Z,99.99
2018-12-07T07:26:56.062Z,99.99
2018-12-07T07:27:56.027Z,99.99
2018-12-07T07:28:56.046Z,99.99
2018-12-07T07:29:56.015Z,99.99
2018-12-07T07:30:55.994Z,99.99
2018-12-07T07:31:55.995Z,99.99
2018-12-07T07:32:55.975Z,99.99
2018-12-07T07:33:55.989Z,99.99
2018-12-07T07:34:55.973Z,99.99
2018-12-07T07:35:55.940Z,99.99
2018-12-07T07:36:55.934Z,99.99
2018-12-07T07:37:55.923Z,99.99
2018-12-07T07:38:55.909Z,99.99
2018-12-07T07:39:55.902Z,99.99
2018-12-07T07:40:55.922Z,99.99
2018-12-07T07:41:55.878Z,99.99
2018-12-07T07:42:55.869Z,99.99
2018-12-07T07:43:55.902Z,99.99
2018-12-07T07:44:55.846Z,99.99
2018-12-07T07:45:55.836Z,99.99
2018-12-07T07:46:55.833Z,99.99
2018-12-07T07:47:55.817Z,99.99
2018-12-07T07:48:55.805Z,99.99
2018-12-07T07:49:55.791Z,99.99
2018-12-07T07:50:55.776Z,99.99
2018-12-07T07:51:55.799Z,99.99
2018-12-07T07:52:55.758Z,99.99
2018-12-07T07:53:55.745Z,99.99
2018-12-07T07:54:55.739Z,99.99
2018-12-07T07:55:55.736Z,99.99
2018-12-07T07:56:55.717Z,99.99
2018-12-07T07:57:55.724Z,99.99
2018-12-07T07:59:03.258Z,99.99
2018-12-07T07:59:55.691Z,99.99
2018-12-07T08:00:55.669Z,99.99
2018-12-07T08:01:55.696Z,99.99
2018-12-07T08:02:55.655Z,99.99
2018-12-07T08:03:55.664Z,99.99
2018-12-07T08:04:55.670Z,99.99
2018-12-07T08:05:55.617Z,99.99
2018-12-07T08:06:55.603Z,99.99
2018-12-07T08:07:55.731Z,99.99
2018-12-07T08:08:55.618Z,99.93
2018-12-07T08:09:55.567Z,99.99
2018-12-07T08:10:55.574Z,99.99
2018-12-07T08:11:55.546Z,99.82
2018-12-07T08:12:55.540Z,99.82
2018-12-07T08:13:55.545Z,99.99
2018-12-07T08:14:55.555Z,99.99
2018-12-07T08:15:55.506Z,99.72
2018-12-07T08:16:55.506Z,99.99
2018-12-07T08:17:55.481Z,99.52
2018-12-07T08:18:55.471Z,99.41
2018-12-07T08:19:55.461Z,99.99
2018-12-07T08:20:55.457Z,99.37
2018-12-07T08:21:55.461Z,99.93
2018-12-07T08:22:55.432Z,99.99
2018-12-07T08:23:55.467Z,99.99
2018-12-07T08:24:55.404Z,99.99
2018-12-07T08:25:55.397Z,99.99
2018-12-07T08:26:55.384Z,99.41
2018-12-07T08:27:55.392Z,99.52
2018-12-07T08:28:55.367Z,99.99
2018-12-07T08:29:55.383Z,99.52
2018-12-07T08:30:55.372Z,99.72
2018-12-07T08:31:55.331Z,99.99
2018-12-07T08:32:55.327Z,99.99
2018-12-07T08:33:55.323Z,99.82
2018-12-07T08:34:55.298Z,99.99
2018-12-07T08:35:55.282Z,99.99
2018-12-07T08:36:55.312Z,99.41
2018-12-07T08:37:55.262Z,99.99
2018-12-07T08:38:55.266Z,99.52
2018-12-07T08:39:55.237Z,99.99
2018-12-07T08:40:55.227Z,99.82
2018-12-07T08:41:55.218Z,99.62
2018-12-07T08:42:55.222Z,99.82
2018-12-07T08:43:55.204Z,99.52
2018-12-07T08:44:55.212Z,99.52
2018-12-07T08:45:55.182Z,99.68
2018-12-07T08:46:55.165Z,99.41
2018-12-07T08:47:55.153Z,99.52
2018-12-07T08:48:55.142Z,99.41
2018-12-07T08:49:55.898Z,99.78
2018-12-07T08:50:55.126Z,99.21
2018-12-07T08:51:55.107Z,99.52
2018-12-07T08:52:55.102Z,99.41
2018-12-07T08:53:55.085Z,99.16
2018-12-07T08:54:55.072Z,99.41
2018-12-07T08:55:55.076Z,99.52
2018-12-07T08:56:55.092Z,99.41
2018-12-07T08:57:55.045Z,99.31
2018-12-07T08:58:55.040Z,99.21
2018-12-07T08:59:55.019Z,99.52
2018-12-07T09:00:55.028Z,99.52
2018-12-07T09:01:54.997Z,99.21
2018-12-07T09:02:55.011Z,99.21
2018-12-07T09:03:54.978Z,99.31
2018-12-07T09:04:54.962Z,99.52
2018-12-07T09:05:54.955Z,99.72
2018-12-07T09:06:54.963Z,99.11
2018-12-07T09:07:54.932Z,98.70
2018-12-07T09:08:54.940Z,99.11
2018-12-07T09:09:54.947Z,99.31
2018-12-07T09:10:54.897Z,99.52
2018-12-07T09:11:54.902Z,99.52
2018-12-07T09:12:54.876Z,99.31
2018-12-07T09:13:54.869Z,99.52
2018-12-07T09:14:54.854Z,99.93
2018-12-07T09:15:54.865Z,99.99
2018-12-07T09:16:54.841Z,99.93
2018-12-07T09:17:54.839Z,99.52
2018-12-07T09:18:54.820Z,99.41
2018-12-07T09:19:54.801Z,99.52
2018-12-07T09:20:54.789Z,99.52
2018-12-07T09:21:54.816Z,99.52
2018-12-07T09:22:54.770Z,99.41
2018-12-07T09:23:54.765Z,99.41
2018-12-07T09:24:54.746Z,99.31
2018-12-07T09:25:54.733Z,99.52
2018-12-07T09:26:54.724Z,99.82
2018-12-07T09:27:54.718Z,99.93
2018-12-07T09:28:54.763Z,99.99
2018-12-07T09:29:54.687Z,99.93
2018-12-07T09:30:54.683Z,99.41
2018-12-07T09:31:54.704Z,99.62
2018-12-07T09:32:54.660Z,99.41
2018-12-07T09:33:54.644Z,99.31
2018-12-07T09:34:54.655Z,99.31
2018-12-07T09:35:54.666Z,99.31
2018-12-07T09:36:54.611Z,99.52
2018-12-07T09:37:54.617Z,99.52
2018-12-07T09:38:54.589Z,99.72
2018-12-07T09:39:54.598Z,99.62
2018-12-07T09:40:54.579Z,99.72
2018-12-07T09:41:54.561Z,99.41
2018-12-07T09:42:54.546Z,99.72
2018-12-07T09:43:54.556Z,99.52
2018-12-07T09:44:54.528Z,99.01
2018-12-07T09:45:54.525Z,99.52
2018-12-07T09:46:56.139Z,99.31
2018-12-07T09:47:54.506Z,99.52
2018-12-07T09:48:54.492Z,99.52
2018-12-07T09:49:54.472Z,99.52
2018-12-07T09:50:54.494Z,99.01
2018-12-07T09:51:54.461Z,99.99
2018-12-07T09:52:54.458Z,99.01
2018-12-07T09:53:54.428Z,99.62
2018-12-07T09:54:54.422Z,99.93
2018-12-07T09:55:54.408Z,99.21
2018-12-07T09:56:54.429Z,99.31
2018-12-07T09:57:54.394Z,99.62
2018-12-07T09:58:54.373Z,99.11
2018-12-07T09:59:54.369Z,99.21
2018-12-07T10:00:54.363Z,99.31
2018-12-07T10:01:54.339Z,99.31
2018-12-07T10:02:54.375Z,99.21
2018-12-07T10:03:54.319Z,98.70
2018-12-07T10:04:54.305Z,99.11
2018-12-07T10:05:54.294Z,98.90
2018-12-07T10:06:54.307Z,99.01
2018-12-07T10:07:54.276Z,99.21
2018-12-07T10:08:54.302Z,98.80
2018-12-07T10:09:54.254Z,98.49
2018-12-07T10:10:54.243Z,99.11
2018-12-07T10:11:54.252Z,98.29
2018-12-07T10:12:54.221Z,98.39
2018-12-07T10:13:54.209Z,98.45
2018-12-07T10:14:54.192Z,98.90
2018-12-07T10:15:54.192Z,98.70
2018-12-07T10:16:54.211Z,99.01
2018-12-07T10:17:54.191Z,98.39
2018-12-07T10:18:54.154Z,98.29
2018-12-07T10:19:54.145Z,98.90
2018-12-07T10:20:54.132Z,98.80
2018-12-07T10:21:54.122Z,98.80
2018-12-07T10:22:54.123Z,98.19
2018-12-07T10:23:54.123Z,98.24
2018-12-07T10:24:54.122Z,98.08
2018-12-07T10:25:54.078Z,97.47
2018-12-07T10:26:54.064Z,97.47
2018-12-07T10:27:54.054Z,97.47
2018-12-07T10:28:54.064Z,97.06
2018-12-07T10:29:54.062Z,97.37
2018-12-07T10:30:54.027Z,97.47
2018-12-07T10:31:54.052Z,97.27
2018-12-07T10:32:54.003Z,97.37
2018-12-07T10:33:54.022Z,97.67
2018-12-07T10:34:53.986Z,98.29
2018-12-07T10:35:54.057Z,98.49
2018-12-07T10:36:53.961Z,97.88
2018-12-07T10:37:53.949Z,97.16
2018-12-07T10:38:53.933Z,97.83
2018-12-07T10:39:53.984Z,97.12
2018-12-07T10:40:53.922Z,97.06
2018-12-07T10:41:53.917Z,97.78
2018-12-07T10:42:53.921Z,97.47
2018-12-07T10:43:53.888Z,97.67
2018-12-07T10:44:53.869Z,98.08
2018-12-07T10:45:53.889Z,97.47
2018-12-07T10:46:53.869Z,97.63
2018-12-07T10:47:53.837Z,97.98
2018-12-07T10:48:53.824Z,97.37
2018-12-07T10:49:53.813Z,97.47
2018-12-07T10:50:53.800Z,97.57
2018-12-07T10:51:53.790Z,97.67
2018-12-07T10:52:53.813Z,97.57
2018-12-07T10:53:53.777Z,97.53
2018-12-07T10:54:53.778Z,97.37
2018-12-07T10:55:53.748Z,97.57
2018-12-07T10:56:53.744Z,97.42
2018-12-07T10:57:53.727Z,97.02
2018-12-07T10:58:53.731Z,97.83
2018-12-07T10:59:53.706Z,97.83
2018-12-07T11:00:53.731Z,97.42
2018-12-07T11:01:53.683Z,97.83
2018-12-07T11:02:53.677Z,97.42
2018-12-07T11:03:53.660Z,97.22
2018-12-07T11:04:53.664Z,97.37
2018-12-07T11:05:53.638Z,97.02
2018-12-07T11:06:53.645Z,97.47
2018-12-07T11:07:53.621Z,97.12
2018-12-07T11:08:53.612Z,97.02
2018-12-07T11:09:53.621Z,97.63
2018-12-07T11:10:53.583Z,97.42
2018-12-07T11:11:53.622Z,97.78
2018-12-07T11:12:53.598Z,96.92
2018-12-07T11:13:53.548Z,96.92
2018-12-07T11:14:53.543Z,96.86
2018-12-07T11:15:53.585Z,96.71
2018-12-07T11:16:53.515Z,96.92
2018-12-07T11:17:53.506Z,97.47
2018-12-07T11:18:53.494Z,96.61
2018-12-07T11:19:53.500Z,97.12
2018-12-07T11:20:53.499Z,97.53
2018-12-07T11:21:53.482Z,97.06
2018-12-07T11:22:53.464Z,96.81
2018-12-07T11:23:53.437Z,96.25
2018-12-07T11:24:53.429Z,97.33
2018-12-07T11:25:53.423Z,96.30
2018-12-07T11:26:53.407Z,96.10
2018-12-07T11:27:53.439Z,95.84
2018-12-07T11:28:53.382Z,96.10
2018-12-07T11:29:53.371Z,96.81
2018-12-07T11:30:53.362Z,96.45
2018-12-07T11:31:53.351Z,96.10
2018-12-07T11:32:53.346Z,96.30
2018-12-07T11:33:53.393Z,95.89
2018-12-07T11:34:53.398Z,95.89
2018-12-07T11:35:53.328Z,95.89
2018-12-07T11:36:53.302Z,96.30
2018-12-07T11:37:53.287Z,96.34
2018-12-07T11:38:53.290Z,96.20
2018-12-07T11:39:53.284Z,96.20
2018-12-07T11:40:53.285Z,96.00
2018-12-07T11:41:53.252Z,95.69
2018-12-07T11:42:53.231Z,95.79
2018-12-07T11:43:53.218Z,95.59
2018-12-07T11:44:53.214Z,95.69
2018-12-07T11:45:53.214Z,94.97
2018-12-07T11:46:53.183Z,94.97
2018-12-07T11:47:53.175Z,95.79
2018-12-07T11:48:53.198Z,95.28
2018-12-07T11:49:53.152Z,94.87
2018-12-07T11:50:53.154Z,95.03
2018-12-07T11:51:53.146Z,94.73
2018-12-07T11:52:53.119Z,94.46
2018-12-07T11:53:53.105Z,94.62
2018-12-07T11:54:53.094Z,94.82
2018-12-07T11:55:53.100Z,94.11
2018-12-07T11:56:53.076Z,95.23
2018-12-07T11:57:53.086Z,94.01
2018-12-07T11:58:53.127Z,94.21
2018-12-07T11:59:53.040Z,94.01
2018-12-07T12:00:53.031Z,94.11
2018-12-07T12:01:53.038Z,94.01
2018-12-07T12:02:53.022Z,93.70
2018-12-07T12:03:53.043Z,93.70
2018-12-07T12:04:52.991Z,93.80
2018-12-07T12:05:52.985Z,93.60
2018-12-07T12:06:52.962Z,93.60
2018-12-07T12:07:52.976Z,94.01
2018-12-07T12:08:52.947Z,93.40
2018-12-07T12:09:52.929Z,93.50
2018-12-07T12:10:52.930Z,93.60
2018-12-07T12:11:52.910Z,93.80
2018-12-07T12:12:52.897Z,93.91
2018-12-07T12:13:52.906Z,93.80
2018-12-07T12:14:52.879Z,94.93
2018-12-07T12:15:52.862Z,94.42
2018-12-07T12:16:52.886Z,94.52
2018-12-07T12:17:52.842Z,94.11
2018-12-07T12:18:52.829Z,94.82
2018-12-07T12:19:52.848Z,94.32
2018-12-07T12:20:52.823Z,94.11
2018-12-07T12:21:52.794Z,93.60
2018-12-07T12:22:52.785Z,93.50
2018-12-07T12:23:53.772Z,93.50
2018-12-07T12:24:52.771Z,93.60
2018-12-07T12:25:52.768Z,93.70
2018-12-07T12:26:52.765Z,93.70
2018-12-07T12:27:52.758Z,94.11
2018-12-07T12:28:52.720Z,93.60
2018-12-07T12:29:52.706Z,93.40
2018-12-07T12:30:52.722Z,93.40
2018-12-07T12:31:52.694Z,93.50
2018-12-07T12:32:52.679Z,92.78
2018-12-07T12:33:52.664Z,92.78
2018-12-07T12:34:52.683Z,92.88
2018-12-07T12:35:52.643Z,92.74
2018-12-07T12:36:52.644Z,93.70
2018-12-07T12:37:52.636Z,93.50
2018-12-07T12:38:52.611Z,93.29
2018-12-07T12:39:52.640Z,93.80
2018-12-07T12:40:52.587Z,93.50
2018-12-07T12:41:52.576Z,93.50
2018-12-07T12:42:52.609Z,92.78
2018-12-07T12:43:52.579Z,92.47
2018-12-07T12:44:52.550Z,93.60
2018-12-07T12:45:52.534Z,92.78
2018-12-07T12:46:52.523Z,92.88
2018-12-07T12:47:52.535Z,92.88
2018-12-07T12:48:52.505Z,92.58
2018-12-07T12:49:52.502Z,92.74
2018-12-07T12:50:52.473Z,91.46
2018-12-07T12:51:52.474Z,92.78
2018-12-07T12:52:52.455Z,92.43